Time;durP1;ratioP1;P1;durP2;ratioP2;P2;SDS_P1;SDS_P2;PMS_P1;PMS_P2;Temp;Humidity;BMP_temperature;BMP_pressure;BME280_temperature;BME280_humidity;BME280_pressure;Samples;Min_cycle;Max_cycle;Signal;HPM_P1;HPM_P2
2024/01/19 00:00:25;;;;;;;;;;;;;;;-2.45;100.00;101376.09;6270774;22;20377;-76
2024/01/19 00:02:50;;;;;;;;;;;;;;;-2.43;100.00;101377.84;6269204;22;20457;-76
2024/01/19 00:05:18;;;;;;;;;;;;;;;-2.43;100.00;101378.78;6272534;22;20325;-76
2024/01/19 00:07:43;;;;;;;;;;;;;;;-2.41;100.00;101374.69;6271194;22;20321;-76
2024/01/19 00:10:09;;;;;;;;;;;;;;;-2.40;100.00;101371.38;6241905;22;19907;-76
2024/01/19 00:12:35;;;;;;;;;;;;;;;-2.39;100.00;101380.81;6242535;22;20421;-76
2024/01/19 00:15:01;;;;;;;;;;;;;;;-2.39;100.00;101378.28;6271567;22;19903;-76
2024/01/19 00:17:27;;;;;;;;;;;;;;;-2.38;100.00;101379.16;6269491;22;19903;-76
2024/01/19 00:19:52;;;;;;;;;;;;;;;-2.39;100.00;101396.13;6241430;22;19914;-76
2024/01/19 00:22:17;;;;;;;;;;;;;;;-2.39;100.00;101391.03;6267776;22;19911;-76
2024/01/19 00:24:43;;;;;;;;;;;;;;;-2.37;100.00;101389.50;6271647;22;19907;-76
2024/01/19 00:27:08;;;;;;;;;;;;;;;-2.38;100.00;101377.50;6270753;22;19913;-76
2024/01/19 00:29:33;;;;;;;;;;;;;;;-2.38;100.00;101387.69;6269032;22;19907;-76
2024/01/19 00:31:58;;;;;;;;;;;;;;;-2.38;100.00;101392.78;6272007;22;19914;-76
2024/01/19 00:34:24;;;;;;;;;;;;;;;-2.37;100.00;101391.16;6270293;22;19953;-76
2024/01/19 00:36:49;;;;;;;;;;;;;;;-2.38;100.00;101392.78;6271921;22;19930;-76
2024/01/19 00:39:14;;;;;;;;;;;;;;;-2.38;100.00;101405.56;6243441;22;19900;-76
2024/01/19 00:41:40;;;;;;;;;;;;;;;-2.41;100.00;101402.75;6272827;22;19915;-76
2024/01/19 00:44:05;;;;;;;;;;;;;;;-2.43;100.00;101401.75;6269980;22;19994;-76
2024/01/19 00:46:30;;;;;;;;;;;;;;;-2.44;100.00;101412.69;6271936;22;19946;-76
2024/01/19 00:48:55;;;;;;;;;;;;;;;-2.45;100.00;101413.47;6269517;22;19903;-76
2024/01/19 00:51:21;;;;;;;;;;;;;;;-2.43;100.00;101418.69;6268105;22;19903;-76
2024/01/19 00:53:46;;;;;;;;;;;;;;;-2.45;100.00;101416.00;6272400;22;19916;-76
2024/01/19 00:56:11;;;;;;;;;;;;;;;-2.44;100.00;101412.69;6271697;22;19918;-75
2024/01/19 00:58:40;;;;;;;;;;;;;;;-2.47;100.00;101409.91;6245469;22;19990;-76
2024/01/19 01:01:06;;;;;;;;;;;;;;;-2.46;100.00;101416.78;6272048;22;20319;-76
2024/01/19 01:03:31;;;;;;;;;;;;;;;-2.46;100.00;101417.69;6243203;22;19911;-76
2024/01/19 01:05:57;;;;;;;;;;;;;;;-2.45;100.00;101419.47;6245655;22;19918;-76
2024/01/19 01:08:27;;;;;;;;;;;;;;;-2.45;100.00;101416.94;6275154;22;19968;-76
2024/01/19 01:10:52;;;;;;;;;;;;;;;-2.42;100.00;101416.25;6270527;22;20405;-76
2024/01/19 01:13:17;;;;;;;;;;;;;;;-2.41;100.00;101417.19;6270764;22;19907;-76
2024/01/19 01:15:43;;;;;;;;;;;;;;;-2.41;100.00;101417.19;6271404;22;20014;-76
2024/01/19 01:18:08;;;;;;;;;;;;;;;-2.42;100.00;101425.59;6272003;22;20550;-76
2024/01/19 01:20:33;;;;;;;;;;;;;;;-2.43;100.00;101418.69;6273413;22;19914;-76
2024/01/19 01:22:59;;;;;;;;;;;;;;;-2.45;100.00;101426.22;6274969;22;19917;-76
2024/01/19 01:25:24;;;;;;;;;;;;;;;-2.47;100.00;101435.41;6275011;22;20318;-76
2024/01/19 01:27:49;;;;;;;;;;;;;;;-2.49;100.00;101439.47;6245483;22;20389;-76
2024/01/19 01:30:14;;;;;;;;;;;;;;;-2.49;100.00;101439.47;6269955;22;20198;-76
2024/01/19 01:32:39;;;;;;;;;;;;;;;-2.50;100.00;101427.50;6273004;22;19930;-76
2024/01/19 01:35:05;;;;;;;;;;;;;;;-2.52;100.00;101439.22;6272229;22;19942;-76
2024/01/19 01:37:30;;;;;;;;;;;;;;;-2.51;100.00;101436.78;6273231;22;19907;-76
2024/01/19 01:39:55;;;;;;;;;;;;;;;-2.50;100.00;101438.59;6270575;22;19903;-76
2024/01/19 01:42:21;;;;;;;;;;;;;;;-2.49;100.00;101440.38;6271179;22;19917;-76
2024/01/19 01:44:47;;;;;;;;;;;;;;;-2.50;100.00;101437.72;6273890;22;19949;-76
2024/01/19 01:47:12;;;;;;;;;;;;;;;-2.50;100.00;101446.25;6244307;22;19907;-76
2024/01/19 01:49:37;;;;;;;;;;;;;;;-2.52;100.00;101445.22;6245922;22;20375;-76
2024/01/19 01:52:03;;;;;;;;;;;;;;;-2.53;100.00;101450.22;6275244;22;19910;-76
2024/01/19 01:54:28;;;;;;;;;;;;;;;-2.57;100.00;101450.69;6246910;22;19974;-76
2024/01/19 01:56:54;;;;;;;;;;;;;;;-2.59;100.00;101452.19;6274674;22;19903;-76
2024/01/19 01:59:20;;;;;;;;;;;;;;;-2.64;100.00;101456.91;6273191;22;20237;-76
2024/01/19 02:01:46;;;;;;;;;;;;;;;-2.69;100.00;101455.66;6272358;22;20668;-76
2024/01/19 02:04:11;;;;;;;;;;;;;;;-2.71;100.00;101463.16;6272857;22;19907;-76
2024/01/19 02:06:38;;;;;;;;;;;;;;;-2.74;100.00;101462.88;6271719;22;19959;-75
2024/01/19 02:09:04;;;;;;;;;;;;;;;-2.77;100.00;101461.72;6271573;22;19907;-76
2024/01/19 02:11:29;;;;;;;;;;;;;;;-2.78;100.00;101459.94;6271818;22;19913;-76
2024/01/19 02:13:54;;;;;;;;;;;;;;;-2.79;100.00;101466.69;6272662;22;19934;-75
2024/01/19 02:16:19;;;;;;;;;;;;;;;-2.80;100.00;101470.00;6272904;22;19903;-75
2024/01/19 02:18:45;;;;;;;;;;;;;;;-2.83;100.00;101474.84;6273405;22;20395;-76
2024/01/19 02:21:10;;;;;;;;;;;;;;;-2.85;100.00;101478.91;6246264;22;20215;-75
2024/01/19 02:23:36;;;;;;;;;;;;;;;-2.88;100.00;101473.53;6272868;22;19911;-76
2024/01/19 02:26:02;;;;;;;;;;;;;;;-2.90;100.00;101477.59;6272140;22;19910;-75
2024/01/19 02:28:27;;;;;;;;;;;;;;;-2.93;100.00;101473.13;6271738;22;19974;-76
2024/01/19 02:30:53;;;;;;;;;;;;;;;-2.94;100.00;101478.09;6270899;22;19942;-75
2024/01/19 02:33:18;;;;;;;;;;;;;;;-2.95;100.00;101486.50;6272519;22;19950;-76
2024/01/19 02:35:43;;;;;;;;;;;;;;;-2.96;100.00;101483.06;6271670;22;19907;-76
2024/01/19 02:38:08;;;;;;;;;;;;;;;-2.95;100.00;101492.50;6244690;22;19911;-75
2024/01/19 02:40:33;;;;;;;;;;;;;;;-2.93;100.00;101495.19;6245278;22;20337;-75
2024/01/19 02:42:59;;;;;;;;;;;;;;;-2.94;100.00;101494.31;6271903;22;19911;-76
2024/01/19 02:45:24;;;;;;;;;;;;;;;-2.92;100.00;101499.53;6245831;22;19907;-76
2024/01/19 02:47:49;;;;;;;;;;;;;;;-2.92;100.00;101502.97;6245898;22;19907;-76
2024/01/19 02:50:14;;;;;;;;;;;;;;;-2.93;100.00;101506.28;6272154;22;19903;-75
2024/01/19 02:52:40;;;;;;;;;;;;;;;-2.91;100.00;101517.53;6271756;22;19953;-75
2024/01/19 02:55:06;;;;;;;;;;;;;;;-2.93;100.00;101521.56;6244701;22;19907;-75
2024/01/19 02:57:31;;;;;;;;;;;;;;;-2.93;100.00;101525.78;6244065;22;20353;-76
2024/01/19 02:59:56;;;;;;;;;;;;;;;-2.93;100.00;101518.13;6243906;22;19964;-75
2024/01/19 03:02:21;;;;;;;;;;;;;;;-2.92;100.00;101519.94;6271133;22;19911;-75
2024/01/19 03:04:47;;;;;;;;;;;;;;;-2.91;100.00;101524.25;6272818;22;19946;-75
2024/01/19 03:07:12;;;;;;;;;;;;;;;-2.90;100.00;101524.38;6273167;22;19903;-75
2024/01/19 03:09:38;;;;;;;;;;;;;;;-2.88;100.00;101524.53;6273022;22;19951;-76
2024/01/19 03:12:03;;;;;;;;;;;;;;;-2.86;100.00;101525.56;6272262;22;19903;-75
2024/01/19 03:14:28;;;;;;;;;;;;;;;-2.84;100.00;101517.31;6271633;22;19914;-75
2024/01/19 03:16:54;;;;;;;;;;;;;;;-2.83;100.00;101524.16;6270962;22;19907;-75
2024/01/19 03:19:19;;;;;;;;;;;;;;;-2.81;100.00;101521.75;6272511;22;20033;-75
2024/01/19 03:21:44;;;;;;;;;;;;;;;-2.80;100.00;101524.44;6271090;22;19914;-75
2024/01/19 03:24:09;;;;;;;;;;;;;;;-2.78;100.00;101523.69;6244088;22;19914;-75
2024/01/19 03:26:35;;;;;;;;;;;;;;;-2.77;100.00;101533.13;6270253;22;19913;-75
2024/01/19 03:29:00;;;;;;;;;;;;;;;-2.76;100.00;101533.28;6269379;22;20326;-75
2024/01/19 03:31:25;;;;;;;;;;;;;;;-2.74;100.00;101534.28;6270895;22;19914;-75
2024/01/19 03:33:50;;;;;;;;;;;;;;;-2.73;100.00;101535.19;6271939;22;19907;-76
2024/01/19 03:36:15;;;;;;;;;;;;;;;-2.69;100.00;101535.59;6271196;22;19907;-75
2024/01/19 03:38:41;;;;;;;;;;;;;;;-2.64;100.00;101530.88;6270562;22;19912;-75
2024/01/19 03:41:06;;;;;;;;;;;;;;;-2.61;100.00;101531.16;6272977;22;19907;-75
2024/01/19 03:43:33;;;;;;;;;;;;;;;-2.57;100.00;101532.34;6270384;22;19919;-76
2024/01/19 03:45:58;;;;;;;;;;;;;;;-2.54;100.00;101533.47;6270087;22;20372;-75
2024/01/19 03:48:23;;;;;;;;;;;;;;;-2.51;100.00;101535.41;6244264;22;19907;-76
2024/01/19 03:50:48;;;;;;;;;;;;;;;-2.48;100.00;101538.22;6271245;22;20314;-76
2024/01/19 03:53:14;;;;;;;;;;;;;;;-2.45;100.00;101539.41;6244843;22;19934;-75
2024/01/19 03:55:39;;;;;;;;;;;;;;;-2.42;100.00;101543.84;6271327;22;19903;-76
2024/01/19 03:58:04;;;;;;;;;;;;;;;-2.41;100.00;101535.44;6271252;22;19907;-75
2024/01/19 04:00:29;;;;;;;;;;;;;;;-2.40;100.00;101542.34;6244887;22;19970;-76
2024/01/19 04:02:55;;;;;;;;;;;;;;;-2.39;100.00;101544.16;6243557;22;19992;-76
2024/01/19 04:05:20;;;;;;;;;;;;;;;-2.36;100.00;101549.50;6244791;22;19961;-75
2024/01/19 04:07:45;;;;;;;;;;;;;;;-2.34;100.00;101547.09;6269869;22;19915;-75
2024/01/19 04:10:11;;;;;;;;;;;;;;;-2.32;100.00;101549.03;6271453;22;19907;-76
2024/01/19 04:12:36;;;;;;;;;;;;;;;-2.32;100.00;101546.47;6271045;22;19910;-76
2024/01/19 04:15:02;;;;;;;;;;;;;;;-2.31;100.00;101558.44;6271165;22;20314;-76
2024/01/19 04:17:27;;;;;;;;;;;;;;;-2.30;100.00;101561.91;6271270;22;19948;-75
2024/01/19 04:19:52;;;;;;;;;;;;;;;-2.29;100.00;101556.03;6272767;22;19913;-75
2024/01/19 04:22:18;;;;;;;;;;;;;;;-2.29;100.00;101559.50;6270713;22;19998;-76
2024/01/19 04:24:43;;;;;;;;;;;;;;;-2.29;100.00;101564.59;6271743;22;20277;-75
2024/01/19 04:27:09;;;;;;;;;;;;;;;-2.31;100.00;101566.09;6270676;22;19903;-76
2024/01/19 04:29:34;;;;;;;;;;;;;;;-2.30;100.00;101577.22;6242736;22;19910;-76
2024/01/19 04:31:59;;;;;;;;;;;;;;;-2.32;100.00;101574.56;6271185;22;19941;-75
2024/01/19 04:34:25;;;;;;;;;;;;;;;-2.32;100.00;101574.56;6270959;22;19903;-76
2024/01/19 04:36:50;;;;;;;;;;;;;;;-2.32;100.00;101583.84;6244121;22;20238;-76
2024/01/19 04:39:16;;;;;;;;;;;;;;;-2.34;100.00;101578.59;6246574;22;19903;-75
2024/01/19 04:41:41;;;;;;;;;;;;;;;-2.34;100.00;101585.38;6274704;22;19911;-75
2024/01/19 04:44:06;;;;;;;;;;;;;;;-2.36;100.00;101582.69;6272513;22;19911;-76
2024/01/19 04:46:32;;;;;;;;;;;;;;;-2.37;100.00;101593.66;6245761;22;19909;-75
2024/01/19 04:48:57;;;;;;;;;;;;;;;-2.38;100.00;101596.97;6246756;22;19946;-75
2024/01/19 04:51:22;;;;;;;;;;;;;;;-2.38;100.00;101608.84;6274164;22;19903;-75
2024/01/19 04:53:47;;;;;;;;;;;;;;;-2.40;100.00;101608.69;6273277;22;19904;-75
2024/01/19 04:56:13;;;;;;;;;;;;;;;-2.41;100.00;101614.56;6274556;22;19929;-75
2024/01/19 04:58:38;;;;;;;;;;;;;;;-2.43;100.00;101616.09;6273592;22;19903;-75
2024/01/19 05:01:03;;;;;;;;;;;;;;;-2.43;100.00;101617.72;6246911;22;19926;-76
2024/01/19 05:03:29;;;;;;;;;;;;;;;-2.43;100.00;101607.53;6274688;22;19907;-76
2024/01/19 05:05:54;;;;;;;;;;;;;;;-2.45;100.00;101617.59;6274905;22;20005;-76
2024/01/19 05:08:19;;;;;;;;;;;;;;;-2.46;100.00;101609.06;6273449;22;19960;-75
2024/01/19 05:10:45;;;;;;;;;;;;;;;-2.48;100.00;101610.59;6274466;22;20273;-76
2024/01/19 05:13:10;;;;;;;;;;;;;;;-2.47;100.00;101608.91;6246144;22;19907;-76
2024/01/19 05:15:36;;;;;;;;;;;;;;;-2.49;100.00;101618.06;6247063;22;19907;-76
2024/01/19 05:18:02;;;;;;;;;;;;;;;-2.49;100.00;101620.63;6272967;22;19938;-76
2024/01/19 05:20:27;;;;;;;;;;;;;;;-2.50;100.00;101622.28;6272797;22;19907;-76
2024/01/19 05:22:53;;;;;;;;;;;;;;;-2.50;100.00;101626.53;6274010;22;19935;-76
2024/01/19 05:25:18;;;;;;;;;;;;;;;-2.52;100.00;101628.03;6245832;22;19907;-76
2024/01/19 05:27:44;;;;;;;;;;;;;;;-2.54;100.00;101629.56;6274992;22;20322;-76
2024/01/19 05:30:09;;;;;;;;;;;;;;;-2.55;100.00;101641.41;6274389;22;19903;-76
2024/01/19 05:32:34;;;;;;;;;;;;;;;-2.57;100.00;101644.59;6272275;22;19907;-76
2024/01/19 05:35:00;;;;;;;;;;;;;;;-2.57;100.00;101654.78;6271271;22;20318;-76
2024/01/19 05:37:26;;;;;;;;;;;;;;;-2.58;100.00;101655.53;6272938;22;19903;-76
2024/01/19 05:39:51;;;;;;;;;;;;;;;-2.57;100.00;101665.00;6246205;22;19903;-75
2024/01/19 05:42:16;;;;;;;;;;;;;;;-2.58;100.00;101660.66;6273441;22;20357;-76
2024/01/19 05:44:42;;;;;;;;;;;;;;;-2.59;100.00;101684.34;6246451;22;20300;-76
2024/01/19 05:47:07;;;;;;;;;;;;;;;-2.58;100.00;101688.72;6244348;22;19903;-76
2024/01/19 05:49:32;;;;;;;;;;;;;;;-2.59;100.00;101692.00;6245625;22;19929;-75
2024/01/19 05:51:57;;;;;;;;;;;;;;;-2.59;100.00;101692.00;6273957;22;19922;-76
2024/01/19 05:54:24;;;;;;;;;;;;;;;-2.59;100.00;101698.03;6271570;22;20404;-75
2024/01/19 05:56:49;;;;;;;;;;;;;;;-2.56;100.00;101702.50;6273086;22;19903;-76
2024/01/19 05:59:15;;;;;;;;;;;;;;;-2.56;100.00;101712.69;6272555;22;20519;-75
2024/01/19 06:01:40;;;;;;;;;;;;;;;-2.57;100.00;101709.25;6274023;22;20309;-76
2024/01/19 06:04:05;;;;;;;;;;;;;;;-2.55;100.00;101719.59;6272238;22;20356;-76
2024/01/19 06:06:30;;;;;;;;;;;;;;;-2.53;100.00;101724.09;6272938;22;19930;-76
2024/01/19 06:08:56;;;;;;;;;;;;;;;-2.52;100.00;101720.78;6272124;22;20253;-75
2024/01/19 06:11:21;;;;;;;;;;;;;;;-2.49;100.00;101725.25;6271975;22;20246;-76
2024/01/19 06:13:47;;;;;;;;;;;;;;;-2.48;100.00;101729.59;6272689;22;19918;-76
2024/01/19 06:16:12;;;;;;;;;;;;;;;-2.45;100.00;101745.19;6245263;22;19911;-76
2024/01/19 06:18:38;;;;;;;;;;;;;;;-2.42;100.00;101744.56;6272761;22;19903;-76
2024/01/19 06:21:08;;;;;;;;;;;;;;;-2.40;100.00;101745.59;6273424;22;19935;-75
2024/01/19 06:23:33;;;;;;;;;;;;;;;-2.39;100.00;101750.88;6272232;22;20238;-75
2024/01/19 06:25:58;;;;;;;;;;;;;;;-2.39;100.00;101758.53;6245173;22;19903;-76
2024/01/19 06:28:24;;;;;;;;;;;;;;;-2.38;100.00;101762.84;6272417;22;19986;-76
2024/01/19 06:30:49;;;;;;;;;;;;;;;-2.37;100.00;101766.31;6274549;22;19910;-75
2024/01/19 06:33:14;;;;;;;;;;;;;;;-2.35;100.00;101777.53;6272695;22;19903;-76
2024/01/19 06:35:39;;;;;;;;;;;;;;;-2.35;100.00;101780.09;6245725;22;19938;-75
2024/01/19 06:38:05;;;;;;;;;;;;;;;-2.36;100.00;101784.31;6272957;22;20244;-76
2024/01/19 06:40:30;;;;;;;;;;;;;;;-2.36;100.00;101789.44;6274203;22;19964;-76
2024/01/19 06:42:56;;;;;;;;;;;;;;;-2.36;100.00;101794.53;6274105;22;19966;-76
2024/01/19 06:45:21;;;;;;;;;;;;;;;-2.37;100.00;101792.72;6245917;22;19911;-76
2024/01/19 06:47:46;;;;;;;;;;;;;;;-2.36;100.00;101791.06;6271409;22;20321;-76
2024/01/19 06:50:12;;;;;;;;;;;;;;;-2.38;100.00;101785.81;6245856;22;19907;-76
2024/01/19 06:52:37;;;;;;;;;;;;;;;-2.38;100.00;101784.94;6272289;22;19978;-75
2024/01/19 06:55:03;;;;;;;;;;;;;;;-2.40;100.00;101782.25;6270407;22;19903;-76
2024/01/19 06:57:28;;;;;;;;;;;;;;;-2.41;100.00;101790.66;6272370;22;20393;-76
2024/01/19 06:59:53;;;;;;;;;;;;;;;-2.43;100.00;101794.72;6271252;22;20241;-76
2024/01/19 07:02:19;;;;;;;;;;;;;;;-2.45;100.00;101798.78;6272545;22;20210;-76
2024/01/19 07:04:44;;;;;;;;;;;;;;;-2.48;100.00;101808.72;6271702;22;19926;-76
2024/01/19 07:07:09;;;;;;;;;;;;;;;-2.50;100.00;101817.88;6272588;22;19945;-76
2024/01/19 07:09:36;;;;;;;;;;;;;;;-2.53;100.00;101812.50;6272937;22;19903;-76
2024/01/19 07:12:01;;;;;;;;;;;;;;;-2.55;100.00;101816.56;6246448;22;20309;-76
2024/01/19 07:14:26;;;;;;;;;;;;;;;-2.57;100.00;101820.63;6273791;22;20360;-76
2024/01/19 07:16:52;;;;;;;;;;;;;;;-2.59;100.00;101827.22;6273496;22;19907;-76
2024/01/19 07:19:17;;;;;;;;;;;;;;;-2.62;100.00;101835.53;6273876;22;19907;-76
2024/01/19 07:21:43;;;;;;;;;;;;;;;-2.64;100.00;101839.56;6273908;22;20342;-76
2024/01/19 07:24:09;;;;;;;;;;;;;;;-2.67;100.00;101839.28;6273168;22;20393;-76
2024/01/19 07:26:35;;;;;;;;;;;;;;;-2.68;100.00;101843.50;6246794;22;19907;-76
2024/01/19 07:29:04;;;;;;;;;;;;;;;-2.70;100.00;101836.47;6273846;22;19941;-76
2024/01/19 07:31:29;;;;;;;;;;;;;;;-2.73;100.00;101837.06;6273635;22;19910;-76
2024/01/19 07:33:55;;;;;;;;;;;;;;;-2.74;100.00;101849.69;6246521;22;19907;-76
2024/01/19 07:36:20;;;;;;;;;;;;;;;-2.75;100.00;101843.69;6273398;22;19925;-75
2024/01/19 07:38:45;;;;;;;;;;;;;;;-2.76;100.00;101846.97;6246583;22;19939;-76
2024/01/19 07:41:10;;;;;;;;;;;;;;;-2.76;100.00;101849.53;6273483;22;19903;-76
2024/01/19 07:43:36;;;;;;;;;;;;;;;-2.78;100.00;101853.59;6273395;22;19934;-76
2024/01/19 07:46:01;;;;;;;;;;;;;;;-2.78;100.00;101852.69;6273651;22;19926;-76
2024/01/19 07:48:26;;;;;;;;;;;;;;;-2.77;100.00;101860.47;6273563;22;19938;-76
2024/01/19 07:50:51;;;;;;;;;;;;;;;-2.79;100.00;101864.56;6246375;22;20235;-76
2024/01/19 07:53:16;;;;;;;;;;;;;;;-2.79;100.00;101872.22;6273717;22;19934;-75
2024/01/19 07:55:42;;;;;;;;;;;;;;;-2.78;100.00;101883.28;6273247;22;19911;-76
2024/01/19 07:58:07;;;;;;;;;;;;;;;-2.78;100.00;101879.13;6273489;22;19903;-76
2024/01/19 08:00:32;;;;;;;;;;;;;;;-2.76;100.00;101887.78;6273668;22;19992;-76
2024/01/19 08:02:58;;;;;;;;;;;;;;;-2.72;100.00;101887.34;6273052;22;19945;-75
2024/01/19 08:05:23;;;;;;;;;;;;;;;-2.72;100.00;101889.88;6273072;22;19910;-76
2024/01/19 08:07:49;;;;;;;;;;;;;;;-2.72;100.00;101894.97;6272297;22;20341;-76
2024/01/19 08:10:14;;;;;;;;;;;;;;;-2.71;100.00;101898.41;6245709;22;20623;-76
2024/01/19 08:12:39;;;;;;;;;;;;;;;-2.70;100.00;101902.78;6272897;22;19903;-76
2024/01/19 08:15:05;;;;;;;;;;;;;;;-2.71;100.00;101903.53;6271862;22;20319;-76
2024/01/19 08:17:30;;;;;;;;;;;;;;;-2.71;100.00;101909.53;6244920;22;19912;-76
2024/01/19 08:19:55;;;;;;;;;;;;;;;-2.69;100.00;101915.69;6272816;22;19949;-75
2024/01/19 08:22:21;;;;;;;;;;;;;;;-2.67;100.00;101919.25;6246129;22;19907;-75
2024/01/19 08:24:46;;;;;;;;;;;;;;;-2.64;100.00;101924.69;6272338;22;19907;-76
2024/01/19 08:27:11;;;;;;;;;;;;;;;-2.58;100.00;101924.31;6245543;22;20165;-76
2024/01/19 08:29:36;;;;;;;;;;;;;;;-2.49;100.00;101924.28;6273116;22;19946;-76
2024/01/19 08:32:02;;;;;;;;;;;;;;;-2.33;100.00;101922.41;6272511;22;19918;-76
2024/01/19 08:34:27;;;;;;;;;;;;;;;-1.98;100.00;101917.09;6271862;22;20322;-76
2024/01/19 08:36:53;;;;;;;;;;;;;;;-1.31;100.00;101923.03;6272750;22;19910;-75
2024/01/19 08:39:18;;;;;;;;;;;;;;;-0.47;100.00;101924.34;6244273;22;20310;-75
2024/01/19 08:41:44;;;;;;;;;;;;;;;-0.09;100.00;101928.38;6271472;22;19989;-75
2024/01/19 08:44:09;;;;;;;;;;;;;;;0.75;100.00;101936.97;6272376;22;19957;-75
2024/01/19 08:46:41;;;;;;;;;;;;;;;1.96;100.00;101929.28;6242104;22;20223;-76
2024/01/19 08:49:06;;;;;;;;;;;;;;;3.04;100.00;101923.41;6244018;22;19914;-76
2024/01/19 08:51:31;;;;;;;;;;;;;;;3.61;100.00;101922.28;6271937;22;19911;-76
2024/01/19 08:53:56;;;;;;;;;;;;;;;3.92;100.00;101932.97;6273122;22;19907;-76
2024/01/19 08:56:22;;;;;;;;;;;;;;;4.42;100.00;101937.19;6245553;22;20029;-76
2024/01/19 08:58:47;;;;;;;;;;;;;;;4.53;100.00;101943.03;6272338;22;19946;-76
2024/01/19 09:01:16;;;;;;;;;;;;;;;4.41;100.00;101947.41;6270900;22;19911;-76
2024/01/19 09:03:41;;;;;;;;;;;;;;;5.00;100.00;101947.81;6270173;22;20318;-76
2024/01/19 09:06:07;;;;;;;;;;;;;;;5.46;100.00;101946.34;6246346;22;19903;-76
2024/01/19 09:08:32;;;;;;;;;;;;;;;5.54;100.00;101958.94;6245696;22;19907;-76
2024/01/19 09:10:57;;;;;;;;;;;;;;;5.59;100.00;101964.44;6272654;22;20234;-76
2024/01/19 09:13:22;;;;;;;;;;;;;;;5.70;100.00;101965.06;6269161;22;19907;-76
2024/01/19 09:15:48;;;;;;;;;;;;;;;5.63;100.00;101965.50;6272282;22;19957;-76
2024/01/19 09:18:13;;;;;;;;;;;;;;;5.49;100.00;101967.22;6273684;22;19903;-76
2024/01/19 09:20:39;;;;;;;;;;;;;;;5.11;99.80;101973.44;6272756;22;19904;-76
2024/01/19 09:23:04;;;;;;;;;;;;;;;4.40;99.38;101984.31;6272227;22;19907;-76
2024/01/19 09:25:29;;;;;;;;;;;;;;;3.72;99.17;101995.16;6244949;22;20033;-76
2024/01/19 09:27:55;;;;;;;;;;;;;;;2.99;99.61;101999.44;6247274;22;19907;-76
2024/01/19 09:30:21;;;;;;;;;;;;;;;2.33;100.00;101998.94;6274567;22;20234;-76
2024/01/19 09:32:47;;;;;;;;;;;;;;;1.79;100.00;102010.22;6247639;22;20348;-76
2024/01/19 09:35:13;;;;;;;;;;;;;;;1.36;100.00;102017.09;6243612;22;19911;-76
2024/01/19 09:37:38;;;;;;;;;;;;;;;1.02;100.00;102024.69;6272575;22;19903;-76
2024/01/19 09:40:04;;;;;;;;;;;;;;;0.75;100.00;102019.06;6268694;22;19942;-76
2024/01/19 09:42:32;;;;;;;;;;;;;;;0.52;100.00;102020.66;6246243;22;19911;-76
2024/01/19 09:45:12;;;;;;;;;;;;;;;0.38;100.00;102016.03;6272496;22;20326;-76
2024/01/19 09:47:56;;;;;;;;;;;;;;;0.24;100.00;102025.13;6274241;22;19915;-76
2024/01/19 09:50:24;;;;;;;;;;;;;;;0.14;100.00;102026.00;6275118;22;20238;-76
2024/01/19 09:52:59;;;;;;;;;;;;;;;0.06;100.00;102016.78;6246968;22;20227;-76
2024/01/19 09:55:25;;;;;;;;;;;;;;;0.01;100.00;102035.09;6274325;22;19952;-76
2024/01/19 09:57:50;;;;;;;;;;;;;;;-0.07;100.00;102030.22;6247617;22;19942;-76
2024/01/19 10:00:17;;;;;;;;;;;;;;;-0.11;100.00;102037.50;6272857;22;19903;-76
2024/01/19 10:02:52;;;;;;;;;;;;;;;-0.14;100.00;102044.94;6246816;22;19930;-76
2024/01/19 10:05:18;;;;;;;;;;;;;;;-0.20;100.00;102043.63;6273139;22;20323;-76
2024/01/19 10:07:44;;;;;;;;;;;;;;;-0.23;100.00;102062.97;6273880;22;19909;-76
2024/01/19 10:10:10;;;;;;;;;;;;;;;-0.27;100.00;102063.47;6270394;22;19998;-77
2024/01/19 10:12:37;;;;;;;;;;;;;;;-0.30;100.00;102061.53;6273731;22;20316;-77
2024/01/19 10:15:02;;;;;;;;;;;;;;;-0.29;100.00;102057.28;6244834;22;19941;-77
2024/01/19 10:17:28;;;;;;;;;;;;;;;-0.30;100.00;102064.09;6247426;22;19978;-76
2024/01/19 10:19:53;;;;;;;;;;;;;;;-0.27;100.00;102050.66;6274338;22;19904;-76
2024/01/19 10:22:26;;;;;;;;;;;;;;;-0.26;100.00;102063.59;6274980;22;20223;-76
2024/01/19 10:25:08;;;;;;;;;;;;;;;-0.26;100.00;102065.25;6273426;22;19907;-77
2024/01/19 10:27:38;;;;;;;;;;;;;;;-0.25;100.00;102065.38;6273294;22;19907;-76
2024/01/19 10:30:09;;;;;;;;;;;;;;;-0.23;100.00;102068.97;6270727;22;20237;-76
2024/01/19 10:32:34;;;;;;;;;;;;;;;-0.21;100.00;102066.56;6274625;22;19903;-77
2024/01/19 10:35:07;;;;;;;;;;;;;;;-0.22;100.00;102068.22;6274277;22;19978;-77
2024/01/19 10:37:32;;;;;;;;;;;;;;;-0.06;100.00;102066.97;6274832;22;19914;-77
2024/01/19 10:40:12;;;;;;;;;;;;;;;0.27;100.00;102070.63;6273790;22;19907;-77
2024/01/19 10:42:40;;;;;;;;;;;;;;;0.66;100.00;102067.94;6274155;22;19915;-77
2024/01/19 10:45:16;;;;;;;;;;;;;;;0.95;100.00;102064.31;6273897;22;19907;-78
2024/01/19 10:47:42;;;;;;;;;;;;;;;1.09;100.00;102065.47;6247373;22;20482;-78
2024/01/19 10:50:08;;;;;;;;;;;;;;;1.10;100.00;102067.28;6273164;22;19903;-78
2024/01/19 10:52:34;;;;;;;;;;;;;;;1.07;100.00;102066.09;6247285;22;19903;-78
2024/01/19 10:54:59;;;;;;;;;;;;;;;1.04;100.00;102071.88;6273890;22;19990;-79
2024/01/19 10:57:24;;;;;;;;;;;;;;;1.01;100.00;102069.06;6274682;22;19960;-79
2024/01/19 10:59:50;;;;;;;;;;;;;;;0.97;100.00;102067.00;6274250;22;19910;-79
2024/01/19 11:02:15;;;;;;;;;;;;;;;0.94;100.00;102066.78;6273567;22;19930;-79
2024/01/19 11:04:43;;;;;;;;;;;;;;;0.95;100.00;102071.13;6246562;22;19918;-79
2024/01/19 11:07:08;;;;;;;;;;;;;;;0.95;100.00;102060.88;6247421;22;19910;-79
2024/01/19 11:09:34;;;;;;;;;;;;;;;0.96;100.00;102071.25;6273917;22;19926;-80
2024/01/19 11:12:02;;;;;;;;;;;;;;;0.93;100.00;102071.00;6273977;22;20318;-80
2024/01/19 11:14:27;;;;;;;;;;;;;;;0.91;100.00;102071.66;6273025;22;19927;-80
2024/01/19 11:16:54;;;;;;;;;;;;;;;0.90;100.00;102074.97;6273328;22;19903;-80
2024/01/19 11:19:20;;;;;;;;;;;;;;;0.88;100.00;102076.53;6245660;22;19990;-81
2024/01/19 11:21:45;;;;;;;;;;;;;;;0.85;100.00;102070.41;6246352;22;19911;-80
2024/01/19 11:24:11;;;;;;;;;;;;;;;0.84;100.00;102071.16;6246301;22;19907;-80
2024/01/19 11:26:55;;;;;;;;;;;;;;;0.83;100.00;102064.22;6246138;22;20341;-80
2024/01/19 11:29:21;;;;;;;;;;;;;;;0.82;100.00;102072.69;6273422;22;19903;-80
2024/01/19 11:31:48;;;;;;;;;;;;;;;0.81;100.00;102064.84;6273131;22;19930;-80
2024/01/19 11:34:32;;;;;;;;;;;;;;;0.80;100.00;102068.22;6272875;22;20294;-80
2024/01/19 11:36:57;;;;;;;;;;;;;;;0.79;100.00;102066.41;6273555;22;19937;-80
2024/01/19 11:39:39;;;;;;;;;;;;;;;0.81;100.00;102076.03;6273406;22;19907;-80
2024/01/19 11:42:05;;;;;;;;;;;;;;;0.84;100.00;102072.81;6272428;22;20141;-81
2024/01/19 11:44:44;;;;;;;;;;;;;;;0.86;100.00;102076.41;6273254;22;20036;-81
2024/01/19 11:47:29;;;;;;;;;;;;;;;0.88;100.00;102082.56;6270787;22;19907;-81
2024/01/19 11:49:54;;;;;;;;;;;;;;;0.89;100.00;102078.34;6271879;22;19991;-81
2024/01/19 11:52:20;;;;;;;;;;;;;;;0.91;100.00;102087.03;6273874;22;19943;-81
2024/01/19 11:54:45;;;;;;;;;;;;;;;0.88;100.00;102080.00;6273278;22;19914;-80
2024/01/19 11:57:20;;;;;;;;;;;;;;;0.90;100.00;102074.97;6273033;22;19929;-81
2024/01/19 11:59:46;;;;;;;;;;;;;;;0.91;100.00;102085.38;6271939;22;19944;-81
2024/01/19 12:02:30;;;;;;;;;;;;;;;0.92;100.00;102088.84;6242856;22;19907;-81
2024/01/19 12:04:58;;;;;;;;;;;;;;;0.94;100.00;102088.22;6267940;22;19911;-81
2024/01/19 12:07:23;;;;;;;;;;;;;;;0.96;100.00;102094.34;6271784;22;19982;-81
2024/01/19 12:10:07;;;;;;;;;;;;;;;0.99;100.00;102093.72;6273220;22;19938;-81
2024/01/19 12:12:34;;;;;;;;;;;;;;;1.00;100.00;102103.19;6273187;22;20391;-81
2024/01/19 12:15:00;;;;;;;;;;;;;;;1.03;100.00;102093.22;6245741;22;20385;-81
2024/01/19 12:17:25;;;;;;;;;;;;;;;1.06;100.00;102101.16;6245600;22;19903;-80
2024/01/19 12:19:54;;;;;;;;;;;;;;;1.09;100.00;102096.28;6245618;22;19909;-81
2024/01/19 12:22:19;;;;;;;;;;;;;;;1.11;100.00;102097.28;6245866;22;20326;-81